Kingville, South Carolina
Current Conditions -  °F | °C
As of 2:58 AM on Tuesday 21 Oct 2014 (Local Time) from KMMT Reporting Station
Few Clouds Few Clouds  
Wind Chill: 53°   Ceiling: Unl
Heat Index: 53°   Visibility: 10mi
Dew Point: 52°   Wind: 5mph
Humidity: 97%   Direction: 320°NW
Pressure: 29.97"   Gusts: NA
Location:  33.8428°N, 80.7414°W
Report Text: KMMT 210658Z AUTO 32004KT 10SM FEW060 11/11 A2997 RMK AO2 SLP151 T01140110
Loading
Personal Weather Stations






























Interactive Weather Map New forecast layout! Learn more

10-Day Weather Forecast

Advertisements
Track Severe Weather on mobile